Time;durP1;ratioP1;P1;durP2;ratioP2;P2;SDS_P1;SDS_P2;PMS_P1;PMS_P2;Temp;Humidity;BMP_temperature;BMP_pressure;BME280_temperature;BME280_humidity;BME280_pressure;Samples;Min_cycle;Max_cycle;Signal;HPM_P1;HPM_P2
2020/12/15 00:02:04;;;;;;;8.90;4.80;;;;;;;;;;5095533;28;20058;-74
2020/12/15 00:04:30;;;;;;;7.38;3.67;;;;;;;;;;5095588;28;20515;-75
2020/12/15 00:06:55;;;;;;;11.68;6.45;;;;;;;;;;5095493;28;20036;-74
2020/12/15 00:09:21;;;;;;;10.32;5.72;;;;;;;;;;5096077;28;20043;-74
2020/12/15 00:11:46;;;;;;;10.07;5.95;;;;;;;;;;5095715;28;20051;-74
2020/12/15 00:14:12;;;;;;;6.85;4.10;;;;;;;;;;5108274;28;20359;-75
2020/12/15 00:16:37;;;;;;;5.95;3.38;;;;;;;;;;5116093;28;20035;-75
2020/12/15 00:19:02;;;;;;;6.70;3.42;;;;;;;;;;5115950;28;20043;-75
2020/12/15 00:21:28;;;;;;;7.82;4.38;;;;;;;;;;5116514;28;20035;-75
2020/12/15 00:23:55;;;;;;;5.43;3.85;;;;;;;;;;5116186;28;20425;-75
2020/12/15 00:26:22;;;;;;;6.40;3.90;;;;;;;;;;5116055;28;20071;-75
2020/12/15 00:28:50;;;;;;;5.70;4.07;;;;;;;;;;5115935;28;20027;-74
2020/12/15 00:31:17;;;;;;;6.93;4.28;;;;;;;;;;5116094;27;20066;-75
2020/12/15 00:33:43;;;;;;;7.25;4.40;;;;;;;;;;5114694;28;20061;-75
2020/12/15 00:36:08;;;;;;;7.85;4.63;;;;;;;;;;5116073;28;20071;-75
2020/12/15 00:38:34;;;;;;;9.40;4.25;;;;;;;;;;5116384;28;20081;-75
2020/12/15 00:40:59;;;;;;;5.57;3.90;;;;;;;;;;5116102;28;20035;-74
2020/12/15 00:43:24;;;;;;;5.47;3.70;;;;;;;;;;5110419;28;20052;-75
2020/12/15 00:45:50;;;;;;;5.72;3.50;;;;;;;;;;5094503;28;20490;-75
2020/12/15 00:48:16;;;;;;;8.13;5.03;;;;;;;;;;5095483;28;20177;-75
2020/12/15 00:50:42;;;;;;;8.27;4.60;;;;;;;;;;5095650;28;20488;-75
2020/12/15 00:53:07;;;;;;;8.55;4.50;;;;;;;;;;5095721;28;20048;-75
2020/12/15 00:55:33;;;;;;;7.78;5.00;;;;;;;;;;5094644;28;20034;-75
2020/12/15 00:57:59;;;;;;;7.40;5.35;;;;;;;;;;5094795;28;20039;-75
2020/12/15 01:00:24;;;;;;;8.05;5.63;;;;;;;;;;5095718;28;20520;-75
2020/12/15 01:02:50;;;;;;;14.77;7.35;;;;;;;;;;5095300;28;20066;-75
2020/12/15 01:05:15;;;;;;;12.40;6.53;;;;;;;;;;5094445;28;20035;-75
2020/12/15 01:07:43;;;;;;;11.40;6.60;;;;;;;;;;5094165;28;20093;-75
2020/12/15 01:10:08;;;;;;;16.27;7.80;;;;;;;;;;5095121;28;20035;-75
2020/12/15 01:12:40;;;;;;;10.32;6.50;;;;;;;;;;5093797;28;20039;-74
2020/12/15 01:15:06;;;;;;;10.25;6.47;;;;;;;;;;5093860;28;20123;-75
2020/12/15 01:17:35;;;;;;;10.45;6.78;;;;;;;;;;5093294;28;20067;-75
2020/12/15 01:20:01;;;;;;;10.75;5.95;;;;;;;;;;5094113;28;20093;-74
2020/12/15 01:22:27;;;;;;;9.52;6.07;;;;;;;;;;5094489;28;20115;-75
2020/12/15 01:24:53;;;;;;;11.60;5.63;;;;;;;;;;5094269;28;20382;-74
2020/12/15 01:27:27;;;;;;;7.88;5.70;;;;;;;;;;5094627;28;20043;-75
2020/12/15 01:30:13;;;;;;;12.67;8.20;;;;;;;;;;5095241;28;20028;-75
2020/12/15 01:32:56;;;;;;;11.75;7.32;;;;;;;;;;5095112;28;20047;-75
2020/12/15 01:35:38;;;;;;;12.95;7.47;;;;;;;;;;5094279;28;20493;-74
2020/12/15 01:38:04;;;;;;;10.68;7.03;;;;;;;;;;5094179;28;20043;-75
2020/12/15 01:40:30;;;;;;;12.00;7.85;;;;;;;;;;5093961;28;20027;-75
2020/12/15 01:42:55;;;;;;;10.52;6.18;;;;;;;;;;5093877;28;20086;-75
2020/12/15 01:45:22;;;;;;;11.98;6.93;;;;;;;;;;5094205;28;20036;-75
2020/12/15 01:47:48;;;;;;;18.55;13.68;;;;;;;;;;5093796;28;20040;-75
2020/12/15 01:50:14;;;;;;;16.20;11.52;;;;;;;;;;5094328;28;20043;-75
2020/12/15 01:52:40;;;;;;;15.20;11.02;;;;;;;;;;5094052;28;20039;-75
2020/12/15 01:55:06;;;;;;;18.48;12.68;;;;;;;;;;5093790;28;20024;-75
2020/12/15 01:57:51;;;;;;;12.40;9.77;;;;;;;;;;5094089;28;20039;-75
2020/12/15 02:00:27;;;;;;;15.38;11.43;;;;;;;;;;5093429;28;20054;-75
2020/12/15 02:03:08;;;;;;;15.40;10.98;;;;;;;;;;5093573;28;20039;-75
2020/12/15 02:05:54;;;;;;;13.77;10.05;;;;;;;;;;5094534;28;20064;-75
2020/12/15 02:08:20;;;;;;;15.82;11.02;;;;;;;;;;5076685;28;20032;-75
2020/12/15 02:10:45;;;;;;;13.25;10.80;;;;;;;;;;5093474;28;20027;-75
2020/12/15 02:13:17;;;;;;;16.05;11.60;;;;;;;;;;5093823;28;20028;-75
2020/12/15 02:15:43;;;;;;;14.93;11.90;;;;;;;;;;5093630;28;20031;-75
2020/12/15 02:18:09;;;;;;;15.70;11.70;;;;;;;;;;5094259;28;20039;-75
2020/12/15 02:20:44;;;;;;;16.85;12.02;;;;;;;;;;5093053;28;20043;-75
2020/12/15 02:23:33;;;;;;;16.65;12.38;;;;;;;;;;5094688;28;20044;-75
2020/12/15 02:26:10;;;;;;;15.65;10.40;;;;;;;;;;5093696;28;20032;-75
2020/12/15 02:28:38;;;;;;;11.25;9.10;;;;;;;;;;5093525;28;20046;-74
2020/12/15 02:31:03;;;;;;;10.88;8.90;;;;;;;;;;5096346;28;20024;-75
2020/12/15 02:33:37;;;;;;;11.00;8.50;;;;;;;;;;5097602;28;20197;-75
2020/12/15 02:36:03;;;;;;;13.85;10.93;;;;;;;;;;5098041;28;20044;-75
2020/12/15 02:38:31;;;;;;;15.20;11.23;;;;;;;;;;5097210;28;20066;-75
2020/12/15 02:40:58;;;;;;;12.48;10.20;;;;;;;;;;5096874;28;20492;-75
2020/12/15 02:43:50;;;;;;;10.77;8.93;;;;;;;;;;5094283;28;20406;-75
2020/12/15 02:46:19;;;;;;;11.50;9.88;;;;;;;;;;5095260;28;20032;-75
2020/12/15 02:48:44;;;;;;;12.63;9.35;;;;;;;;;;5096456;28;20042;-75
2020/12/15 02:51:12;;;;;;;9.63;8.63;;;;;;;;;;5094862;28;20066;-75
2020/12/15 02:53:59;;;;;;;12.77;9.23;;;;;;;;;;5095310;28;20102;-75
2020/12/15 02:56:25;;;;;;;10.60;8.90;;;;;;;;;;5095340;28;20028;-75
2020/12/15 02:58:54;;;;;;;9.05;7.45;;;;;;;;;;5095069;28;20051;-75
2020/12/15 03:01:20;;;;;;;9.50;7.22;;;;;;;;;;5096276;28;20036;-74
2020/12/15 03:03:48;;;;;;;11.52;8.40;;;;;;;;;;5095225;28;20043;-75
2020/12/15 03:06:36;;;;;;;13.23;10.88;;;;;;;;;;5095229;28;20028;-75
2020/12/15 03:09:06;;;;;;;12.18;9.60;;;;;;;;;;5095350;28;20055;-75
2020/12/15 03:11:33;;;;;;;12.68;9.65;;;;;;;;;;5095073;28;20028;-75
2020/12/15 03:14:06;;;;;;;12.20;8.85;;;;;;;;;;5095224;28;20059;-74
2020/12/15 03:16:33;;;;;;;11.85;9.35;;;;;;;;;;5095078;28;20141;-74
2020/12/15 03:18:59;;;;;;;13.25;9.80;;;;;;;;;;5094699;28;20032;-74
2020/12/15 03:21:27;;;;;;;12.98;9.82;;;;;;;;;;5095123;28;20035;-74
2020/12/15 03:23:54;;;;;;;11.00;8.98;;;;;;;;;;5095842;28;20097;-75
2020/12/15 03:26:20;;;;;;;12.10;9.98;;;;;;;;;;5095317;28;20028;-74
2020/12/15 03:28:46;;;;;;;15.43;10.25;;;;;;;;;;5095288;28;20386;-74
2020/12/15 03:31:13;;;;;;;12.77;10.48;;;;;;;;;;5096768;28;20024;-74
2020/12/15 03:33:39;;;;;;;12.20;9.50;;;;;;;;;;5095774;28;20043;-75
2020/12/15 03:36:07;;;;;;;12.05;9.57;;;;;;;;;;5095797;28;20097;-74
2020/12/15 03:38:37;;;;;;;12.77;9.70;;;;;;;;;;5096039;28;20032;-75
2020/12/15 03:41:03;;;;;;;13.88;10.55;;;;;;;;;;5094977;28;20034;-75
2020/12/15 03:43:37;;;;;;;13.70;10.55;;;;;;;;;;5095235;28;20093;-74
2020/12/15 03:46:13;;;;;;;;;;;;;;;;;;5095317;28;20035;-75
2020/12/15 03:48:39;;;;;;;14.63;11.52;;;;;;;;;;5095335;28;19921;-75
2020/12/15 03:51:07;;;;;;;15.73;10.30;;;;;;;;;;5094660;28;20076;-74
2020/12/15 03:53:58;;;;;;;13.57;9.73;;;;;;;;;;5094859;28;20439;-75
2020/12/15 03:56:24;;;;;;;11.93;9.73;;;;;;;;;;5093690;28;20036;-75
2020/12/15 03:58:50;;;;;;;11.30;8.93;;;;;;;;;;5094167;28;20044;-74
2020/12/15 04:01:15;;;;;;;12.75;9.30;;;;;;;;;;5094848;28;20035;-73
2020/12/15 04:03:41;;;;;;;12.45;10.20;;;;;;;;;;5093484;28;20036;-73
2020/12/15 04:06:14;;;;;;;12.20;9.98;;;;;;;;;;5093708;28;20035;-73
2020/12/15 04:08:47;;;;;;;14.95;11.02;;;;;;;;;;5093499;28;20047;-74
2020/12/15 04:11:14;;;;;;;13.40;11.45;;;;;;;;;;5093329;28;20035;-73
2020/12/15 04:13:46;;;;;;;15.40;11.25;;;;;;;;;;5093666;28;20482;-74
2020/12/15 04:16:14;;;;;;;12.00;9.77;;;;;;;;;;5093610;28;20119;-74
2020/12/15 04:18:50;;;;;;;13.65;10.18;;;;;;;;;;5093053;28;20036;-73
2020/12/15 04:21:18;;;;;;;13.52;10.35;;;;;;;;;;5076597;28;20039;-74
2020/12/15 04:23:45;;;;;;;10.52;8.80;;;;;;;;;;5076845;28;20050;-74
2020/12/15 04:26:14;;;;;;;11.27;8.52;;;;;;;;;;5093469;28;20032;-73
2020/12/15 04:28:47;;;;;;;16.88;10.57;;;;;;;;;;5093124;28;20351;-73
2020/12/15 04:31:12;;;;;;;14.32;10.23;;;;;;;;;;5093042;28;20043;-74
2020/12/15 04:33:38;;;;;;;10.73;9.07;;;;;;;;;;5092967;28;20035;-73
2020/12/15 04:36:05;;;;;;;11.60;9.18;;;;;;;;;;5093133;28;20073;-73
2020/12/15 04:38:31;;;;;;;12.18;9.00;;;;;;;;;;5093091;28;20039;-73
2020/12/15 04:41:04;;;;;;;8.40;7.28;;;;;;;;;;5093071;28;20069;-73
2020/12/15 04:43:41;;;;;;;9.75;8.35;;;;;;;;;;5092918;28;20389;-73
2020/12/15 04:46:11;;;;;;;10.73;8.98;;;;;;;;;;5092997;28;20032;-74
2020/12/15 04:48:46;;;;;;;10.38;8.07;;;;;;;;;;5092492;28;20060;-73
2020/12/15 04:51:17;;;;;;;9.90;7.93;;;;;;;;;;5092619;28;20024;-74
2020/12/15 04:54:02;;;;;;;10.13;8.13;;;;;;;;;;5092472;28;20032;-73
2020/12/15 04:56:52;;;;;;;8.65;7.13;;;;;;;;;;5092868;28;20032;-74
2020/12/15 04:59:35;;;;;;;9.77;6.90;;;;;;;;;;5092959;28;20139;-74
2020/12/15 05:02:18;;;;;;;9.35;7.82;;;;;;;;;;5092820;28;20060;-74
2020/12/15 05:04:45;;;;;;;9.13;7.68;;;;;;;;;;5093964;28;20035;-74
2020/12/15 05:07:12;;;;;;;9.85;8.07;;;;;;;;;;5093005;28;20024;-74
2020/12/15 05:10:08;;;;;;;9.80;8.00;;;;;;;;;;5089404;28;20036;-74
2020/12/15 05:13:00;;;;;;;9.27;6.97;;;;;;;;;;5092506;28;20473;-74
2020/12/15 05:15:27;;;;;;;9.57;7.97;;;;;;;;;;5075727;28;20066;-74
2020/12/15 05:18:03;;;;;;;10.10;8.23;;;;;;;;;;5092942;28;20032;-74
2020/12/15 05:20:31;;;;;;;11.70;8.80;;;;;;;;;;5092032;28;20032;-74
2020/12/15 05:23:23;;;;;;;10.00;7.80;;;;;;;;;;5091801;28;20446;-74
2020/12/15 05:26:01;;;;;;;10.70;9.13;;;;;;;;;;5092294;28;20036;-74
2020/12/15 05:28:28;;;;;;;20.58;10.90;;;;;;;;;;5093557;28;20035;-74
2020/12/15 05:31:00;;;;;;;14.35;11.55;;;;;;;;;;5093512;28;20555;-74
2020/12/15 05:33:32;;;;;;;11.27;8.77;;;;;;;;;;5093214;28;20130;-73
2020/12/15 05:36:25;;;;;;;14.90;9.65;;;;;;;;;;5077143;28;20115;-73
2020/12/15 05:39:23;;;;;;;11.13;8.95;;;;;;;;;;5093555;28;20125;-73
2020/12/15 05:42:08;;;;;;;10.85;8.60;;;;;;;;;;5092333;28;20111;-74
2020/12/15 05:44:37;;;;;;;11.00;8.50;;;;;;;;;;5092142;28;20032;-74
2020/12/15 05:47:08;;;;;;;13.10;9.32;;;;;;;;;;5091862;28;20042;-73
2020/12/15 05:49:40;;;;;;;12.40;10.15;;;;;;;;;;5091670;28;20397;-73
2020/12/15 05:52:09;;;;;;;11.35;9.77;;;;;;;;;;5091990;28;20033;-74
2020/12/15 05:54:35;;;;;;;11.52;9.63;;;;;;;;;;5093498;28;20046;-74
2020/12/15 05:57:03;;;;;;;9.73;8.55;;;;;;;;;;5093360;28;20111;-74
2020/12/15 05:59:28;;;;;;;11.50;9.77;;;;;;;;;;5093051;28;20051;-74
2020/12/15 06:02:03;;;;;;;16.05;13.15;;;;;;;;;;5093234;28;20035;-74
2020/12/15 06:04:28;;;;;;;19.02;13.75;;;;;;;;;;5093119;28;20032;-73
2020/12/15 06:06:54;;;;;;;15.48;11.23;;;;;;;;;;5097175;28;20089;-74
2020/12/15 06:09:19;;;;;;;16.17;11.95;;;;;;;;;;5097173;28;20055;-73
2020/12/15 06:11:46;;;;;;;24.60;16.23;;;;;;;;;;5097021;28;20522;-74
2020/12/15 06:14:12;;;;;;;20.38;14.77;;;;;;;;;;5097233;28;20036;-73
2020/12/15 06:16:39;;;;;;;16.23;13.05;;;;;;;;;;5097144;28;20034;-74
2020/12/15 06:19:07;;;;;;;16.98;13.50;;;;;;;;;;5096769;28;20462;-73
2020/12/15 06:21:34;;;;;;;15.05;12.05;;;;;;;;;;5096854;28;20115;-74
2020/12/15 06:24:04;;;;;;;15.65;12.15;;;;;;;;;;5097211;28;20055;-74
2020/12/15 06:26:31;;;;;;;15.38;12.55;;;;;;;;;;5096725;28;20036;-73
2020/12/15 06:28:58;;;;;;;13.30;10.80;;;;;;;;;;5096721;28;20066;-74
2020/12/15 06:31:23;;;;;;;13.82;11.40;;;;;;;;;;5096705;28;20047;-74
2020/12/15 06:33:54;;;;;;;13.02;10.38;;;;;;;;;;5096534;28;20035;-73
2020/12/15 06:36:30;;;;;;;20.25;14.88;;;;;;;;;;5096555;28;20504;-73
2020/12/15 06:38:57;;;;;;;20.00;14.32;;;;;;;;;;5097002;28;20165;-75
2020/12/15 06:41:23;;;;;;;21.92;16.00;;;;;;;;;;5097574;28;20050;-75
2020/12/15 06:43:49;;;;;;;19.20;14.15;;;;;;;;;;5096684;28;20036;-74
2020/12/15 06:46:15;;;;;;;16.90;12.50;;;;;;;;;;5094878;28;20042;-74
2020/12/15 06:48:44;;;;;;;18.00;13.43;;;;;;;;;;5096229;28;20044;-74
2020/12/15 06:51:10;;;;;;;14.40;11.13;;;;;;;;;;5095269;28;20085;-74
2020/12/15 06:53:36;;;;;;;12.98;10.10;;;;;;;;;;5096369;28;20043;-74
2020/12/15 06:56:03;;;;;;;11.48;9.55;;;;;;;;;;5096385;28;20036;-74
2020/12/15 06:58:29;;;;;;;11.18;8.90;;;;;;;;;;5096198;28;20458;-75
2020/12/15 07:00:57;;;;;;;10.75;8.45;;;;;;;;;;5095096;28;20039;-75
2020/12/15 07:03:36;;;;;;;9.30;7.72;;;;;;;;;;5095952;28;20035;-74
2020/12/15 07:06:15;;;;;;;9.70;7.63;;;;;;;;;;5096104;28;20687;-74
2020/12/15 07:08:42;;;;;;;8.75;7.22;;;;;;;;;;5095950;28;20036;-74
2020/12/15 07:11:08;;;;;;;15.13;11.98;;;;;;;;;;5096073;28;20036;-74
2020/12/15 07:13:33;;;;;;;21.13;14.90;;;;;;;;;;5094360;28;20462;-75
2020/12/15 07:15:58;;;;;;;23.48;13.73;;;;;;;;;;5095797;28;20112;-75
2020/12/15 07:18:24;;;;;;;15.20;12.65;;;;;;;;;;5095726;28;20058;-73
2020/12/15 07:20:49;;;;;;;18.00;13.23;;;;;;;;;;5095921;28;20126;-74
2020/12/15 07:23:16;;;;;;;15.07;12.73;;;;;;;;;;5095904;28;20119;-73
2020/12/15 07:25:42;;;;;;;18.85;13.70;;;;;;;;;;5091959;28;20040;-72
2020/12/15 07:28:07;;;;;;;16.05;11.50;;;;;;;;;;5082888;28;20039;-72
2020/12/15 07:30:37;;;;;;;14.93;12.02;;;;;;;;;;5084900;28;20032;-72
2020/12/15 07:33:02;;;;;;;14.27;11.10;;;;;;;;;;5089153;28;20390;-72
2020/12/15 07:35:29;;;;;;;16.17;10.93;;;;;;;;;;5095868;28;20040;-73
2020/12/15 07:37:58;;;;;;;18.13;12.50;;;;;;;;;;5095976;28;20032;-72
2020/12/15 07:40:29;;;;;;;14.05;10.73;;;;;;;;;;5095134;28;20050;-72
2020/12/15 07:42:56;;;;;;;12.70;10.27;;;;;;;;;;5095726;28;20024;-72
2020/12/15 07:45:24;;;;;;;10.95;9.45;;;;;;;;;;5096034;28;20036;-72
2020/12/15 07:47:50;;;;;;;12.35;9.50;;;;;;;;;;5095790;28;20051;-73
2020/12/15 07:50:16;;;;;;;11.60;9.10;;;;;;;;;;5095703;28;20036;-72
2020/12/15 07:52:41;;;;;;;12.05;9.18;;;;;;;;;;5095978;28;20046;-72
2020/12/15 07:55:09;;;;;;;10.55;8.98;;;;;;;;;;5095754;28;20032;-72
2020/12/15 07:57:37;;;;;;;11.35;8.35;;;;;;;;;;5095892;28;20390;-72
2020/12/15 08:00:10;;;;;;;12.63;10.13;;;;;;;;;;5093958;28;20058;-72
2020/12/15 08:02:39;;;;;;;11.43;10.13;;;;;;;;;;5096034;28;20481;-73
2020/12/15 08:05:16;;;;;;;12.13;9.90;;;;;;;;;;5095466;28;20044;-72
2020/12/15 08:07:51;;;;;;;;;;;;;;;;;;5096171;28;20040;-72
2020/12/15 08:10:28;;;;;;;18.08;13.32;;;;;;;;;;5095873;28;20378;-72
2020/12/15 08:13:00;;;;;;;19.38;14.70;;;;;;;;;;5094675;28;20040;-73
2020/12/15 08:15:30;;;;;;;21.25;14.57;;;;;;;;;;5095900;28;20040;-72
2020/12/15 08:17:55;;;;;;;19.27;13.80;;;;;;;;;;5095851;28;20035;-73
2020/12/15 08:20:29;;;;;;;17.48;13.43;;;;;;;;;;5095552;28;20035;-73
2020/12/15 08:23:06;;;;;;;19.15;13.55;;;;;;;;;;5095176;28;20028;-72
2020/12/15 08:25:32;;;;;;;20.08;15.50;;;;;;;;;;5095165;28;20036;-74
2020/12/15 08:28:21;;;;;;;20.55;15.15;;;;;;;;;;5094415;28;20473;-73
2020/12/15 08:30:54;;;;;;;17.17;13.75;;;;;;;;;;5091797;28;20055;-73
2020/12/15 08:33:27;;;;;;;19.05;12.82;;;;;;;;;;5094412;28;20032;-73
2020/12/15 08:35:53;;;;;;;17.83;12.73;;;;;;;;;;5094310;28;20071;-72
2020/12/15 08:38:20;;;;;;;16.65;12.55;;;;;;;;;;5093157;28;20055;-72
2020/12/15 08:40:53;;;;;;;13.65;11.40;;;;;;;;;;5091197;28;20111;-73
2020/12/15 08:43:19;;;;;;;14.43;10.73;;;;;;;;;;5082593;28;20402;-73
2020/12/15 08:45:45;;;;;;;13.15;10.57;;;;;;;;;;5084448;28;20035;-73
2020/12/15 08:48:16;;;;;;;16.95;13.18;;;;;;;;;;5084104;28;20025;-72
2020/12/15 08:50:42;;;;;;;18.63;13.60;;;;;;;;;;5082451;28;20029;-73
2020/12/15 08:53:11;;;;;;;16.50;13.48;;;;;;;;;;5083406;28;20208;-73
2020/12/15 08:55:36;;;;;;;18.25;13.18;;;;;;;;;;5084266;28;20081;-73
2020/12/15 08:58:03;;;;;;;14.00;11.70;;;;;;;;;;5082890;28;20044;-74
2020/12/15 09:00:33;;;;;;;17.35;12.15;;;;;;;;;;5083785;28;20040;-73
2020/12/15 09:03:10;;;;;;;17.33;12.70;;;;;;;;;;5083975;28;20027;-73
2020/12/15 09:05:51;;;;;;;18.52;13.65;;;;;;;;;;5083859;28;20064;-73
2020/12/15 09:08:17;;;;;;;19.90;14.93;;;;;;;;;;5081680;28;20043;-71
2020/12/15 09:10:43;;;;;;;21.98;16.63;;;;;;;;;;5073831;28;20045;-72
2020/12/15 09:13:08;;;;;;;22.95;16.42;;;;;;;;;;5076527;28;20488;-72
2020/12/15 09:15:50;;;;;;;32.50;23.50;;;;;;;;;;5091977;28;20073;-72
2020/12/15 09:18:16;;;;;;;26.90;19.75;;;;;;;;;;5093725;28;20066;-72
2020/12/15 09:20:42;;;;;;;21.77;15.70;;;;;;;;;;5092203;28;20064;-72
2020/12/15 09:23:08;;;;;;;24.75;18.50;;;;;;;;;;5093708;28;20032;-72
2020/12/15 09:25:34;;;;;;;23.65;18.42;;;;;;;;;;5093583;28;20058;-72
2020/12/15 09:27:59;;;;;;;21.13;16.08;;;;;;;;;;5093650;28;20083;-72
2020/12/15 09:30:24;;;;;;;17.52;13.75;;;;;;;;;;5093493;28;20043;-72
2020/12/15 09:32:50;;;;;;;17.67;13.07;;;;;;;;;;5093612;28;20036;-72
2020/12/15 09:35:15;;;;;;;14.07;11.48;;;;;;;;;;5092802;28;20036;-72
2020/12/15 09:37:41;;;;;;;13.52;11.02;;;;;;;;;;5093498;28;20048;-72
2020/12/15 09:40:08;;;;;;;13.45;10.27;;;;;;;;;;5092485;28;20075;-72
2020/12/15 09:42:38;;;;;;;13.60;10.27;;;;;;;;;;5093456;28;20135;-72
2020/12/15 09:45:06;;;;;;;14.85;11.77;;;;;;;;;;5093373;28;20036;-72
2020/12/15 09:47:32;;;;;;;13.77;10.07;;;;;;;;;;5093338;28;20436;-72
2020/12/15 09:49:58;;;;;;;15.25;11.88;;;;;;;;;;5093195;28;20094;-72
2020/12/15 09:52:26;;;;;;;15.10;11.40;;;;;;;;;;5092081;28;20039;-72
2020/12/15 09:54:51;;;;;;;13.45;11.20;;;;;;;;;;5093265;28;20413;-73
2020/12/15 09:57:17;;;;;;;13.80;10.75;;;;;;;;;;5093370;28;20036;-71
2020/12/15 09:59:42;;;;;;;13.10;9.23;;;;;;;;;;5093276;28;20082;-72
2020/12/15 10:02:07;;;;;;;17.45;12.25;;;;;;;;;;5093282;28;20047;-72
2020/12/15 10:04:33;;;;;;;16.23;12.50;;;;;;;;;;5093021;28;20092;-72
2020/12/15 10:06:58;;;;;;;14.65;10.63;;;;;;;;;;5093232;28;20051;-72
2020/12/15 10:09:23;;;;;;;12.57;9.82;;;;;;;;;;5093367;28;20046;-72
2020/12/15 10:11:49;;;;;;;13.48;10.35;;;;;;;;;;5093075;28;20040;-72
2020/12/15 10:14:14;;;;;;;15.93;11.98;;;;;;;;;;5093279;28;20040;-72
2020/12/15 10:16:40;;;;;;;11.95;10.52;;;;;;;;;;5093051;28;20159;-72
2020/12/15 10:19:08;;;;;;;14.88;11.68;;;;;;;;;;5092733;28;20454;-72
2020/12/15 10:21:37;;;;;;;18.02;13.07;;;;;;;;;;5093072;28;20481;-72
2020/12/15 10:24:03;;;;;;;19.35;15.05;;;;;;;;;;5093138;28;20036;-72
2020/12/15 10:26:29;;;;;;;17.58;12.02;;;;;;;;;;5092965;28;20457;-72
2020/12/15 10:28:54;;;;;;;15.80;12.93;;;;;;;;;;5093195;28;20119;-72
2020/12/15 10:31:20;;;;;;;15.18;11.60;;;;;;;;;;5092795;28;20035;-72
2020/12/15 10:33:46;;;;;;;15.88;11.85;;;;;;;;;;5092738;28;20108;-72
2020/12/15 10:36:12;;;;;;;15.27;11.68;;;;;;;;;;5092681;28;20043;-72
2020/12/15 10:38:38;;;;;;;17.10;13.52;;;;;;;;;;5093117;28;20085;-72
2020/12/15 10:41:04;;;;;;;18.02;13.60;;;;;;;;;;5092941;28;20039;-73
2020/12/15 10:43:29;;;;;;;16.85;12.95;;;;;;;;;;5092787;28;20121;-72
2020/12/15 10:45:55;;;;;;;17.33;13.05;;;;;;;;;;5092786;28;20034;-73
2020/12/15 10:48:20;;;;;;;19.88;14.70;;;;;;;;;;5091514;28;20051;-73
2020/12/15 10:50:46;;;;;;;16.33;12.85;;;;;;;;;;5093323;28;20032;-72
2020/12/15 10:53:11;;;;;;;17.05;12.95;;;;;;;;;;5096472;28;20044;-72
2020/12/15 10:55:37;;;;;;;14.10;12.25;;;;;;;;;;5096330;28;20040;-72
2020/12/15 10:58:03;;;;;;;16.95;12.50;;;;;;;;;;5096483;28;20456;-73
2020/12/15 11:00:29;;;;;;;14.95;12.27;;;;;;;;;;5096102;28;20040;-72
2020/12/15 11:02:54;;;;;;;15.52;12.57;;;;;;;;;;5096332;28;20550;-73
2020/12/15 11:05:20;;;;;;;13.40;11.07;;;;;;;;;;5095816;28;20063;-72
2020/12/15 11:07:45;;;;;;;12.05;9.40;;;;;;;;;;5096285;28;20115;-72
2020/12/15 11:10:11;;;;;;;11.77;9.73;;;;;;;;;;5077979;28;20040;-72
2020/12/15 11:12:36;;;;;;;13.25;10.48;;;;;;;;;;5095994;28;20039;-72
2020/12/15 11:15:02;;;;;;;12.85;10.07;;;;;;;;;;5094686;28;20374;-72
2020/12/15 11:17:27;;;;;;;12.18;9.93;;;;;;;;;;5095860;28;20516;-73
2020/12/15 11:19:53;;;;;;;12.60;9.88;;;;;;;;;;5094577;28;20039;-72
2020/12/15 11:22:18;;;;;;;14.88;11.63;;;;;;;;;;5095856;28;20027;-72
2020/12/15 11:24:43;;;;;;;21.30;15.48;;;;;;;;;;5095857;28;20470;-72
2020/12/15 11:27:09;;;;;;;19.60;14.23;;;;;;;;;;5095364;28;20123;-72
2020/12/15 11:29:34;;;;;;;19.00;14.25;;;;;;;;;;5095979;28;20043;-76
2020/12/15 11:32:00;;;;;;;20.05;15.25;;;;;;;;;;5095638;28;20131;-73
2020/12/15 11:34:25;;;;;;;19.85;14.73;;;;;;;;;;5096025;28;20067;-73
2020/12/15 11:36:54;;;;;;;28.27;19.77;;;;;;;;;;5096063;28;20115;-74
2020/12/15 11:39:22;;;;;;;26.08;18.23;;;;;;;;;;5096634;28;20077;-73
2020/12/15 11:41:51;;;;;;;21.30;16.48;;;;;;;;;;5096582;28;20059;-73
2020/12/15 11:44:20;;;;;;;21.77;15.40;;;;;;;;;;5095486;28;20059;-73
2020/12/15 11:46:45;;;;;;;17.02;12.60;;;;;;;;;;5095486;28;20039;-73
2020/12/15 11:49:11;;;;;;;16.58;12.50;;;;;;;;;;5095291;28;20495;-73
2020/12/15 11:51:37;;;;;;;13.02;10.63;;;;;;;;;;5095375;28;20028;-73
2020/12/15 11:54:02;;;;;;;11.93;9.88;;;;;;;;;;5095432;28;20545;-73
2020/12/15 11:56:28;;;;;;;11.45;8.38;;;;;;;;;;5094585;28;20441;-73
2020/12/15 11:58:53;;;;;;;13.55;10.73;;;;;;;;;;5095142;28;20052;-74
2020/12/15 12:01:18;;;;;;;14.40;10.68;;;;;;;;;;5095051;28;20127;-73
2020/12/15 12:03:44;;;;;;;16.70;12.77;;;;;;;;;;5094219;28;20111;-73
2020/12/15 12:06:09;;;;;;;15.60;11.88;;;;;;;;;;5094701;28;20114;-73
2020/12/15 12:08:35;;;;;;;27.98;21.05;;;;;;;;;;5094931;28;20043;-73
2020/12/15 12:11:00;;;;;;;30.02;20.90;;;;;;;;;;5094956;28;20039;-73
2020/12/15 12:13:26;;;;;;;22.58;17.15;;;;;;;;;;5094477;28;20048;-73
2020/12/15 12:15:51;;;;;;;21.27;16.38;;;;;;;;;;5094760;28;20078;-73
2020/12/15 12:18:17;;;;;;;29.35;22.55;;;;;;;;;;5094831;28;20067;-73
2020/12/15 12:20:42;;;;;;;23.85;16.30;;;;;;;;;;5094450;28;20031;-73
2020/12/15 12:23:07;;;;;;;25.13;17.50;;;;;;;;;;5094734;28;20119;-73
2020/12/15 12:25:33;;;;;;;21.60;15.88;;;;;;;;;;5094659;28;20442;-72
2020/12/15 12:27:58;;;;;;;22.27;17.10;;;;;;;;;;5093432;28;20047;-72
2020/12/15 12:30:24;;;;;;;23.05;16.35;;;;;;;;;;5094482;28;20082;-73
2020/12/15 12:32:50;;;;;;;18.13;14.32;;;;;;;;;;5094664;28;20446;-73
2020/12/15 12:35:15;;;;;;;17.05;13.20;;;;;;;;;;5093980;28;20078;-73
2020/12/15 12:37:41;;;;;;;20.80;14.95;;;;;;;;;;5094434;28;20077;-73
2020/12/15 12:40:06;;;;;;;20.63;14.63;;;;;;;;;;5094379;28;20107;-73
2020/12/15 12:42:32;;;;;;;18.85;14.10;;;;;;;;;;5094315;28;20436;-73
2020/12/15 12:44:57;;;;;;;20.58;16.35;;;;;;;;;;5094138;28;20040;-73
2020/12/15 12:47:22;;;;;;;17.52;13.68;;;;;;;;;;5094035;28;20059;-73
2020/12/15 12:49:48;;;;;;;21.92;14.30;;;;;;;;;;5094011;28;20038;-73
2020/12/15 12:52:13;;;;;;;24.95;17.50;;;;;;;;;;5094110;28;20035;-73
2020/12/15 12:54:39;;;;;;;19.08;14.75;;;;;;;;;;5093936;28;20036;-73
2020/12/15 12:57:04;;;;;;;18.45;13.57;;;;;;;;;;5094162;28;20044;-73
2020/12/15 12:59:29;;;;;;;19.05;13.25;;;;;;;;;;5093808;28;20086;-73
2020/12/15 13:02:00;;;;;;;18.23;13.52;;;;;;;;;;5094034;28;20093;-73
2020/12/15 13:04:25;;;;;;;15.70;12.38;;;;;;;;;;5093754;28;20036;-73
2020/12/15 13:06:52;;;;;;;17.10;12.70;;;;;;;;;;5093845;28;20032;-73
2020/12/15 13:09:18;;;;;;;14.95;10.95;;;;;;;;;;5093814;28;20085;-72
2020/12/15 13:11:43;;;;;;;14.43;11.65;;;;;;;;;;5093740;28;20039;-73
2020/12/15 13:14:09;;;;;;;16.67;10.88;;;;;;;;;;5093954;28;20043;-73
2020/12/15 13:16:34;;;;;;;15.25;11.13;;;;;;;;;;5093625;28;20040;-73
2020/12/15 13:19:02;;;;;;;15.35;11.60;;;;;;;;;;5093804;28;20051;-73
2020/12/15 13:21:28;;;;;;;15.70;11.07;;;;;;;;;;5093427;28;20036;-73
2020/12/15 13:23:53;;;;;;;13.35;10.45;;;;;;;;;;5093730;28;20028;-73
2020/12/15 13:26:22;;;;;;;14.90;11.63;;;;;;;;;;5092278;28;20042;-73
2020/12/15 13:28:47;;;;;;;11.65;9.65;;;;;;;;;;5093581;28;20073;-73
2020/12/15 13:31:13;;;;;;;15.85;10.75;;;;;;;;;;5093462;28;20036;-73
2020/12/15 13:33:39;;;;;;;19.20;11.38;;;;;;;;;;5093205;28;20032;-73
2020/12/15 13:36:10;;;;;;;13.23;9.82;;;;;;;;;;5093389;28;20088;-73
2020/12/15 13:38:36;;;;;;;14.15;9.93;;;;;;;;;;5093539;28;20081;-74
2020/12/15 13:41:03;;;;;;;12.43;8.68;;;;;;;;;;5093283;28;20482;-75
2020/12/15 13:43:29;;;;;;;21.70;15.38;;;;;;;;;;5093591;28;20032;-72
2020/12/15 13:45:54;;;;;;;34.38;22.85;;;;;;;;;;5093747;28;20157;-73
2020/12/15 13:48:19;;;;;;;33.50;23.13;;;;;;;;;;5093364;28;20435;-73
2020/12/15 13:50:45;;;;;;;30.20;20.63;;;;;;;;;;5093272;28;20446;-72
2020/12/15 13:53:10;;;;;;;33.42;21.95;;;;;;;;;;5093368;28;20048;-72
2020/12/15 13:55:36;;;;;;;55.90;33.20;;;;;;;;;;5092168;28;20044;-73
2020/12/15 13:58:01;;;;;;;45.08;26.92;;;;;;;;;;5093483;28;20377;-73
2020/12/15 14:00:27;;;;;;;36.22;23.85;;;;;;;;;;5093425;28;20044;-73
2020/12/15 14:02:52;;;;;;;31.67;21.15;;;;;;;;;;5093322;28;20111;-73
2020/12/15 14:05:17;;;;;;;24.90;17.48;;;;;;;;;;5092736;28;20036;-73
2020/12/15 14:07:43;;;;;;;24.02;16.15;;;;;;;;;;5093223;28;20040;-72
2020/12/15 14:10:08;;;;;;;22.73;15.23;;;;;;;;;;5093266;28;20048;-72
2020/12/15 14:12:33;;;;;;;20.50;15.00;;;;;;;;;;5093032;28;20044;-72
2020/12/15 14:14:59;;;;;;;24.95;14.38;;;;;;;;;;5093216;28;20118;-72
2020/12/15 14:17:24;;;;;;;21.42;15.15;;;;;;;;;;5093246;28;20032;-72
2020/12/15 14:19:49;;;;;;;25.80;13.60;;;;;;;;;;5092919;28;20061;-73
2020/12/15 14:22:15;;;;;;;16.20;11.10;;;;;;;;;;5093113;28;20119;-73
2020/12/15 14:24:40;;;;;;;17.77;10.43;;;;;;;;;;5092933;28;20462;-74
2020/12/15 14:27:06;;;;;;;19.55;12.07;;;;;;;;;;5096173;28;20072;-74
2020/12/15 14:29:31;;;;;;;30.58;19.88;;;;;;;;;;5096108;28;20040;-72
2020/12/15 14:31:57;;;;;;;24.95;17.95;;;;;;;;;;5095985;28;20342;-72